createdAt,value
2022-10-13T00:01:19.912Z,24.70
2022-10-13T00:03:49.354Z,19.23
2022-10-13T00:06:18.899Z,23.67
2022-10-13T00:08:47.812Z,22.73
2022-10-13T00:11:18.154Z,27.30
2022-10-13T00:13:47.195Z,24.70
2022-10-13T00:16:16.637Z,23.23
2022-10-13T00:18:44.544Z,24.47
2022-10-13T00:21:15.874Z,20.63
2022-10-13T00:23:44.650Z,26.93
2022-10-13T00:26:14.316Z,20.87
2022-10-13T00:28:42.254Z,20.07
2022-10-13T00:31:18.153Z,25.30
2022-10-13T00:33:46.057Z,25.03
2022-10-13T00:36:15.121Z,23.37
2022-10-13T00:38:42.689Z,23.10
2022-10-13T00:41:10.826Z,23.37
2022-10-13T00:43:58.836Z,30.63
2022-10-13T00:46:27.864Z,23.60
2022-10-13T00:48:56.651Z,23.00
2022-10-13T00:51:28.020Z,26.40
2022-10-13T00:53:56.483Z,19.63
2022-10-13T00:56:25.307Z,24.80
2022-10-13T00:58:53.240Z,24.67
2022-10-13T01:01:21.269Z,23.07
2022-10-13T01:03:49.043Z,23.80
2022-10-13T01:06:21.140Z,29.77
2022-10-13T01:08:52.723Z,32.33
2022-10-13T01:11:39.077Z,23.53
2022-10-13T01:14:14.757Z,23.10
2022-10-13T01:16:51.375Z,20.43
2022-10-13T01:19:43.271Z,28.03
2022-10-13T01:22:19.273Z,31.50
2022-10-13T01:24:57.278Z,21.07
2022-10-13T01:27:48.649Z,24.77
2022-10-13T01:30:18.533Z,29.60
2022-10-13T01:33:08.017Z,27.13
2022-10-13T01:35:48.601Z,26.43
2022-10-13T01:38:25.533Z,25.87
2022-10-13T01:41:01.860Z,25.90
2022-10-13T01:43:36.446Z,24.57
2022-10-13T01:46:09.552Z,24.40
2022-10-13T01:48:39.499Z,27.43
2022-10-13T01:51:08.598Z,25.13
2022-10-13T01:53:36.601Z,26.43
2022-10-13T01:56:04.374Z,30.63
2022-10-13T01:58:35.436Z,24.67
2022-10-13T02:01:19.473Z,32.00
2022-10-13T02:03:54.384Z,37.53
2022-10-13T02:06:23.836Z,23.87
2022-10-13T02:08:58.579Z,27.77
2022-10-13T02:11:26.285Z,20.17
2022-10-13T02:14:00.605Z,26.83
2022-10-13T02:16:31.360Z,24.13
2022-10-13T02:18:59.391Z,29.87
2022-10-13T02:21:27.269Z,26.20
2022-10-13T02:23:54.760Z,27.10
2022-10-13T02:26:23.233Z,28.80
2022-10-13T02:28:50.764Z,24.20
2022-10-13T02:31:18.535Z,24.53
2022-10-13T02:33:47.580Z,25.80
2022-10-13T02:36:15.079Z,23.07
2022-10-13T02:38:42.829Z,29.67
2022-10-13T02:41:10.340Z,22.27
2022-10-13T02:43:38.659Z,27.90
2022-10-13T02:46:07.119Z,23.37
2022-10-13T02:48:34.753Z,22.17
2022-10-13T02:51:04.091Z,23.67
2022-10-13T02:53:31.776Z,23.87
2022-10-13T02:55:59.534Z,23.17
2022-10-13T02:58:27.072Z,22.93
2022-10-13T03:00:54.833Z,22.27
2022-10-13T03:03:22.508Z,28.83
2022-10-13T03:05:50.024Z,29.80
2022-10-13T03:08:18.975Z,27.57
2022-10-13T03:10:46.888Z,22.40
2022-10-13T03:13:14.767Z,24.30
2022-10-13T03:15:42.311Z,23.13
2022-10-13T03:18:09.916Z,24.80
2022-10-13T03:20:38.439Z,23.53
2022-10-13T03:23:06.840Z,21.53
2022-10-13T03:25:36.187Z,21.53
2022-10-13T03:28:04.191Z,22.13
2022-10-13T03:30:31.683Z,25.70
2022-10-13T03:32:59.469Z,28.87
2022-10-13T03:35:27.464Z,22.73
2022-10-13T03:37:55.237Z,22.30
2022-10-13T03:40:22.916Z,23.87
2022-10-13T03:42:51.914Z,21.63
2022-10-13T03:45:20.872Z,24.03
2022-10-13T03:47:48.578Z,25.83
2022-10-13T03:50:16.306Z,26.63
2022-10-13T03:52:43.839Z,25.63
2022-10-13T03:55:11.445Z,34.07
2022-10-13T03:57:39.117Z,21.07
2022-10-13T04:00:11.342Z,24.40
2022-10-13T04:02:39.086Z,27.83
2022-10-13T04:05:07.460Z,25.57
2022-10-13T04:07:35.984Z,25.50
2022-10-13T04:10:03.812Z,25.03
2022-10-13T04:12:31.449Z,28.87
2022-10-13T04:14:59.138Z,27.40
2022-10-13T04:17:28.200Z,26.00
2022-10-13T04:19:55.759Z,28.60
2022-10-13T04:22:23.459Z,25.20
2022-10-13T04:24:50.967Z,21.07
2022-10-13T04:27:19.925Z,25.50
2022-10-13T04:29:48.078Z,24.47
2022-10-13T04:32:15.665Z,22.93
2022-10-13T04:34:44.632Z,26.70
2022-10-13T04:37:12.257Z,27.83
2022-10-13T04:39:39.880Z,27.87
2022-10-13T04:42:07.618Z,26.03
2022-10-13T04:44:35.315Z,31.80
2022-10-13T04:47:02.956Z,27.33
2022-10-13T04:49:30.631Z,27.00
2022-10-13T04:51:59.592Z,25.03
2022-10-13T04:54:27.347Z,28.90
2022-10-13T04:56:54.932Z,19.00
2022-10-13T04:59:22.577Z,25.03
2022-10-13T05:01:50.277Z,25.93
2022-10-13T05:04:17.988Z,28.53
2022-10-13T05:07:12.405Z,24.50
2022-10-13T05:09:35.137Z,28.50
2022-10-13T05:12:03.061Z,24.50
2022-10-13T05:14:31.072Z,22.50
2022-10-13T05:16:58.781Z,29.93
2022-10-13T05:19:26.532Z,23.67
2022-10-13T05:21:54.125Z,21.70
2022-10-13T05:24:31.134Z,35.10
2022-10-13T05:27:00.589Z,22.17
2022-10-13T05:29:28.512Z,24.43
2022-10-13T05:31:56.217Z,27.10
2022-10-13T05:34:24.059Z,22.93
2022-10-13T05:36:51.775Z,25.13
2022-10-13T05:39:19.783Z,25.00
2022-10-13T05:41:47.340Z,31.43
2022-10-13T05:44:17.449Z,26.57
2022-10-13T05:46:45.312Z,27.83
2022-10-13T05:49:12.868Z,22.03
2022-10-13T05:51:43.944Z,23.17
2022-10-13T05:54:15.703Z,19.80
2022-10-13T05:56:45.655Z,27.37
2022-10-13T05:59:16.678Z,20.03
2022-10-13T06:01:44.956Z,24.57
2022-10-13T06:04:15.280Z,23.67
2022-10-13T06:06:42.850Z,22.73
2022-10-13T06:09:10.357Z,28.03
2022-10-13T06:11:37.988Z,25.47
2022-10-13T06:14:05.691Z,22.90
2022-10-13T06:16:37.273Z,24.87
2022-10-13T06:19:05.155Z,27.10
2022-10-13T06:21:32.961Z,17.67
2022-10-13T06:24:01.202Z,22.17
2022-10-13T06:26:28.677Z,20.53
2022-10-13T06:28:59.496Z,20.23
2022-10-13T06:31:27.885Z,20.23
2022-10-13T06:33:56.825Z,21.37
2022-10-13T06:36:24.279Z,21.77
2022-10-13T06:38:51.910Z,23.53
2022-10-13T06:41:19.449Z,17.57
2022-10-13T06:43:47.009Z,22.13
2022-10-13T06:46:14.564Z,25.83
2022-10-13T06:48:42.022Z,22.07
2022-10-13T06:51:12.557Z,22.57
2022-10-13T06:53:40.094Z,21.80
2022-10-13T06:56:09.615Z,18.83
2022-10-13T06:58:37.558Z,25.57
2022-10-13T07:01:05.510Z,25.77
2022-10-13T07:03:33.157Z,21.50
2022-10-13T07:06:04.433Z,21.90
2022-10-13T07:08:34.040Z,22.30
2022-10-13T07:11:10.538Z,24.03
2022-10-13T07:13:45.291Z,19.60
2022-10-13T07:16:14.733Z,20.63
2022-10-13T07:18:42.384Z,18.37
2022-10-13T07:21:10.519Z,19.23
2022-10-13T07:23:39.374Z,22.07
2022-10-13T07:26:08.856Z,22.50
2022-10-13T07:28:36.481Z,24.50
2022-10-13T07:31:09.606Z,19.10
2022-10-13T07:33:37.132Z,16.67
2022-10-13T07:36:05.157Z,19.20
2022-10-13T07:38:32.770Z,19.67
2022-10-13T07:41:03.113Z,15.00
2022-10-13T07:43:30.910Z,20.27
2022-10-13T07:45:59.406Z,20.33
2022-10-13T07:48:27.114Z,21.73
2022-10-13T07:50:54.733Z,27.00
2022-10-13T07:53:22.491Z,21.07
2022-10-13T07:55:50.021Z,18.53
2022-10-13T07:58:18.945Z,19.30
2022-10-13T08:00:46.602Z,20.33
2022-10-13T08:03:14.146Z,18.33
2022-10-13T08:05:41.701Z,19.37
2022-10-13T08:08:09.251Z,21.00
2022-10-13T08:10:36.970Z,20.70
2022-10-13T08:13:04.479Z,23.00
2022-10-13T08:15:34.934Z,20.77
2022-10-13T08:18:02.406Z,20.93
2022-10-13T08:20:40.918Z,20.27
2022-10-13T08:23:09.194Z,22.30
2022-10-13T08:25:40.745Z,17.10
2022-10-13T08:28:19.163Z,19.83
2022-10-13T08:30:48.496Z,15.30
2022-10-13T08:33:16.187Z,22.90
2022-10-13T08:35:43.875Z,20.97
2022-10-13T08:38:11.726Z,18.00
2022-10-13T08:40:40.364Z,22.03
2022-10-13T08:43:09.310Z,18.77
2022-10-13T08:45:41.506Z,19.83
2022-10-13T08:48:13.729Z,21.57
2022-10-13T08:50:43.968Z,20.30
2022-10-13T08:53:13.796Z,20.17
2022-10-13T08:55:44.520Z,22.03
2022-10-13T08:58:15.408Z,20.40
2022-10-13T09:00:43.578Z,19.83
2022-10-13T09:03:23.397Z,19.10
2022-10-13T09:06:00.942Z,18.70
2022-10-13T09:08:40.842Z,20.50
2022-10-13T09:11:10.631Z,21.43
2022-10-13T09:13:38.362Z,21.63
2022-10-13T09:16:06.357Z,18.60
2022-10-13T09:18:35.595Z,20.33
2022-10-13T09:21:19.786Z,20.00
2022-10-13T09:23:47.576Z,21.53
2022-10-13T09:26:20.725Z,21.90
2022-10-13T09:28:48.361Z,22.70
2022-10-13T09:31:18.156Z,29.07
2022-10-13T09:33:47.285Z,20.23
2022-10-13T09:36:15.939Z,23.23
2022-10-13T09:38:46.545Z,22.47
2022-10-13T09:41:18.333Z,19.40
2022-10-13T09:44:00.293Z,25.80
2022-10-13T09:46:29.767Z,27.90
2022-10-13T09:49:01.574Z,25.83
2022-10-13T09:51:36.579Z,23.33
2022-10-13T09:54:04.341Z,22.97
2022-10-13T09:56:37.057Z,23.03
2022-10-13T09:59:09.347Z,17.37
2022-10-13T10:01:40.862Z,23.97
2022-10-13T10:04:12.592Z,22.07
2022-10-13T10:06:41.581Z,23.53
2022-10-13T10:09:33.003Z,23.90
2022-10-13T10:12:01.583Z,18.63
2022-10-13T10:14:30.770Z,18.80
2022-10-13T10:17:04.065Z,20.43
2022-10-13T10:19:46.004Z,17.73
2022-10-13T10:22:19.415Z,18.30
2022-10-13T10:24:50.463Z,20.17
2022-10-13T10:29:56.105Z,19.23
2022-10-13T10:32:29.195Z,17.50
2022-10-13T10:35:01.511Z,17.30
2022-10-13T10:37:44.336Z,26.80
2022-10-13T10:40:21.801Z,18.70
2022-10-13T10:43:03.394Z,17.37
2022-10-13T10:45:35.565Z,16.80
2022-10-13T10:48:07.782Z,19.93
2022-10-13T10:50:36.769Z,25.43
2022-10-13T10:53:07.604Z,20.17
2022-10-13T10:55:41.030Z,16.27
2022-10-13T10:58:17.012Z,19.33
2022-10-13T11:00:51.128Z,20.63
2022-10-13T11:03:27.689Z,18.27
2022-10-13T11:06:05.204Z,18.37
2022-10-13T11:08:41.668Z,18.10
2022-10-13T11:11:37.750Z,25.00
2022-10-13T11:14:31.882Z,18.30
2022-10-13T11:17:18.664Z,17.73
2022-10-13T11:19:47.744Z,21.23
2022-10-13T11:22:22.052Z,21.60
2022-10-13T11:25:25.892Z,24.83
2022-10-13T11:27:53.473Z,21.60
2022-10-13T11:30:41.170Z,20.70
2022-10-13T11:33:48.061Z,20.90
2022-10-13T11:36:45.982Z,13.17
2022-10-13T11:39:46.738Z,20.83
2022-10-13T11:42:38.243Z,25.97
2022-10-13T11:45:17.292Z,23.60
2022-10-13T11:48:04.926Z,18.90
2022-10-13T11:50:38.420Z,20.63
2022-10-13T11:53:12.789Z,24.30
2022-10-13T11:55:46.993Z,21.23
2022-10-13T11:58:17.961Z,22.80
2022-10-13T12:00:57.056Z,21.23
2022-10-13T12:03:27.719Z,20.57
2022-10-13T12:05:58.318Z,9.00
2022-10-13T12:08:27.054Z,12.13
2022-10-13T12:10:58.112Z,12.20
2022-10-13T12:13:28.003Z,12.60
2022-10-13T12:16:00.933Z,9.43
2022-10-13T12:18:34.021Z,6.83
2022-10-13T12:21:04.347Z,11.03
2022-10-13T12:23:33.014Z,9.83
2022-10-13T12:26:02.214Z,14.87
2022-10-13T12:28:32.152Z,10.17
2022-10-13T12:31:00.847Z,14.57
2022-10-13T12:33:31.570Z,16.03
2022-10-13T12:36:13.011Z,13.67
2022-10-13T12:38:44.951Z,7.27
2022-10-13T12:41:16.530Z,11.53
2022-10-13T12:43:44.341Z,11.87
2022-10-13T12:46:11.835Z,14.93
2022-10-13T12:48:40.217Z,10.27
2022-10-13T12:51:10.266Z,15.33
2022-10-13T12:53:38.717Z,10.10
2022-10-13T12:56:06.962Z,10.20
2022-10-13T12:58:36.917Z,9.50
2022-10-13T13:01:29.251Z,11.63
2022-10-13T13:03:58.988Z,15.63
2022-10-13T13:06:31.864Z,9.67
2022-10-13T13:09:20.377Z,8.67
2022-10-13T13:11:48.028Z,16.77
2022-10-13T13:14:36.370Z,12.37
2022-10-13T13:17:06.530Z,9.20
2022-10-13T13:19:35.194Z,14.63
2022-10-13T13:22:03.764Z,17.90
2022-10-13T13:24:39.956Z,10.40
2022-10-13T13:27:18.390Z,13.83
2022-10-13T13:29:47.612Z,10.77
2022-10-13T13:32:19.951Z,9.40
2022-10-13T13:34:47.925Z,9.00
2022-10-13T13:37:24.176Z,10.33
2022-10-13T13:39:51.908Z,10.63
2022-10-13T13:42:19.507Z,15.77
2022-10-13T13:44:48.446Z,9.63
2022-10-13T13:47:18.428Z,11.37
2022-10-13T13:49:46.545Z,12.23
2022-10-13T13:52:14.161Z,10.33
2022-10-13T13:54:41.729Z,12.13
2022-10-13T13:57:10.628Z,10.63
2022-10-13T13:59:38.340Z,9.50
2022-10-13T14:02:08.838Z,18.20
2022-10-13T14:04:36.707Z,11.67
2022-10-13T14:07:04.210Z,15.40
2022-10-13T14:09:32.056Z,14.07
2022-10-13T14:12:00.003Z,14.77
2022-10-13T14:14:27.560Z,23.57
2022-10-13T14:16:55.052Z,18.23
2022-10-13T14:19:24.051Z,11.63
2022-10-13T14:21:51.568Z,13.70
2022-10-13T14:24:19.405Z,21.53
2022-10-13T14:26:47.122Z,14.30
2022-10-13T14:29:14.788Z,16.20
2022-10-13T14:31:42.361Z,16.10
2022-10-13T14:34:10.229Z,16.90
2022-10-13T14:36:39.144Z,16.20
2022-10-13T14:39:06.815Z,20.77
2022-10-13T14:41:34.371Z,21.83
2022-10-13T14:44:02.100Z,19.03
2022-10-13T14:46:29.882Z,16.60
2022-10-13T14:48:58.730Z,15.93
2022-10-13T14:51:26.332Z,20.87
2022-10-13T14:53:55.310Z,19.30
2022-10-13T14:56:25.567Z,18.93
2022-10-13T14:58:54.392Z,18.57
2022-10-13T15:01:21.948Z,20.57
2022-10-13T15:03:49.869Z,19.93
2022-10-13T15:06:19.245Z,18.03
2022-10-13T15:08:46.990Z,19.93
2022-10-13T15:11:16.440Z,21.50
2022-10-13T15:13:44.393Z,23.37
2022-10-13T15:16:16.221Z,24.60
2022-10-13T15:18:44.337Z,18.93
2022-10-13T15:21:12.096Z,20.70
2022-10-13T15:23:39.909Z,18.13
2022-10-13T15:26:08.196Z,23.77
2022-10-13T15:28:38.815Z,19.17
2022-10-13T15:31:06.967Z,21.53
2022-10-13T15:33:34.668Z,20.90
2022-10-13T15:36:02.246Z,23.67
2022-10-13T15:38:30.048Z,19.80
2022-10-13T15:41:00.553Z,20.13
2022-10-13T15:43:28.328Z,23.60
2022-10-13T15:45:58.982Z,23.97
2022-10-13T15:48:26.780Z,24.03
2022-10-13T15:50:54.457Z,26.67
2022-10-13T15:53:22.296Z,26.83
2022-10-13T15:55:49.809Z,28.80
2022-10-13T15:58:18.036Z,24.90
2022-10-13T16:00:45.934Z,26.70
2022-10-13T16:03:17.841Z,31.13
2022-10-13T16:05:46.790Z,31.03
2022-10-13T16:08:15.144Z,27.83
2022-10-13T16:10:44.035Z,24.60
2022-10-13T16:13:15.100Z,28.63
2022-10-13T16:15:42.847Z,25.90
2022-10-13T16:18:10.426Z,29.23
2022-10-13T16:20:44.243Z,26.53
2022-10-13T16:23:11.782Z,26.57
2022-10-13T16:25:40.214Z,26.63
2022-10-13T16:28:07.701Z,37.73
2022-10-13T16:30:37.218Z,26.40
2022-10-13T16:33:04.963Z,22.93
2022-10-13T16:35:34.166Z,27.50
2022-10-13T16:38:04.666Z,25.90
2022-10-13T16:40:32.381Z,27.60
2022-10-13T16:42:59.854Z,30.90
2022-10-13T16:45:47.892Z,30.03
2022-10-13T16:48:14.926Z,24.93
2022-10-13T16:50:42.421Z,23.70
2022-10-13T16:53:11.318Z,26.63
2022-10-13T16:55:40.171Z,29.27
2022-10-13T16:58:07.885Z,34.33
2022-10-13T17:00:36.154Z,33.50
2022-10-13T17:03:03.760Z,30.20
2022-10-13T17:05:31.314Z,25.43
2022-10-13T17:07:58.915Z,27.20
2022-10-13T17:10:28.018Z,29.83
2022-10-13T17:12:55.489Z,30.27
2022-10-13T17:15:22.989Z,33.03
2022-10-13T17:17:50.669Z,30.70
2022-10-13T17:20:18.601Z,33.53
2022-10-13T17:22:46.109Z,26.43
2022-10-13T17:25:14.045Z,31.00
2022-10-13T17:27:43.028Z,31.20
2022-10-13T17:30:11.892Z,27.20
2022-10-13T17:32:39.994Z,24.07
2022-10-13T17:35:10.783Z,33.77
2022-10-13T17:37:38.318Z,28.57
2022-10-13T17:40:06.850Z,31.00
2022-10-13T17:42:34.421Z,21.33
2022-10-13T17:45:03.342Z,28.73
2022-10-13T17:47:31.041Z,29.17
2022-10-13T17:49:58.558Z,27.90
2022-10-13T17:52:26.821Z,28.07
2022-10-13T17:54:55.765Z,29.07
2022-10-13T17:57:23.412Z,20.97
2022-10-13T17:59:51.191Z,23.00
2022-10-13T18:02:21.673Z,22.43
2022-10-13T18:04:49.156Z,21.67
2022-10-13T18:07:16.618Z,19.23
2022-10-13T18:09:44.681Z,24.37
2022-10-13T18:12:12.201Z,26.93
2022-10-13T18:14:39.713Z,26.07
2022-10-13T18:17:07.269Z,20.83
2022-10-13T18:19:40.072Z,23.30
2022-10-13T18:22:08.029Z,22.30
2022-10-13T18:24:35.528Z,21.07
2022-10-13T18:27:03.027Z,24.53
2022-10-13T18:29:30.753Z,20.13
2022-10-13T18:31:58.281Z,26.00
2022-10-13T18:34:25.797Z,22.83
2022-10-13T18:36:55.914Z,26.37
2022-10-13T18:39:25.648Z,21.20
2022-10-13T18:41:53.768Z,19.60
2022-10-13T18:44:21.662Z,21.53
2022-10-13T18:46:50.310Z,20.27
2022-10-13T18:49:20.499Z,25.83
2022-10-13T18:51:50.937Z,23.63
2022-10-13T18:54:19.921Z,21.93
2022-10-13T18:56:47.517Z,20.43
2022-10-13T18:59:15.123Z,25.17
2022-10-13T19:01:42.870Z,27.63
2022-10-13T19:04:12.702Z,25.67
2022-10-13T19:06:40.743Z,25.67
2022-10-13T19:09:09.947Z,20.47
2022-10-13T19:11:39.093Z,21.93
2022-10-13T19:14:08.806Z,25.63
2022-10-13T19:16:38.818Z,16.63
2022-10-13T19:19:07.873Z,19.83
2022-10-13T19:21:36.028Z,20.20
2022-10-13T19:24:03.731Z,20.43
2022-10-13T19:26:33.245Z,15.83
2022-10-13T19:29:05.275Z,19.87
2022-10-13T19:31:34.741Z,21.60
2022-10-13T19:34:02.474Z,17.40
2022-10-13T19:36:31.719Z,17.23
2022-10-13T19:39:00.031Z,15.47
2022-10-13T19:41:29.107Z,17.63
2022-10-13T19:43:56.705Z,14.17
2022-10-13T19:46:25.781Z,17.47
2022-10-13T19:48:53.254Z,17.33
2022-10-13T19:51:20.802Z,15.30
2022-10-13T19:53:49.467Z,20.20
2022-10-13T19:56:22.878Z,14.37
2022-10-13T19:58:50.547Z,19.27
2022-10-13T20:01:19.864Z,20.43
2022-10-13T20:03:49.218Z,14.10
2022-10-13T20:06:17.667Z,16.83
2022-10-13T20:08:46.246Z,10.50
2022-10-13T20:11:20.672Z,10.87
2022-10-13T20:13:51.091Z,15.83
2022-10-13T20:16:20.701Z,14.43
2022-10-13T20:18:53.989Z,14.77
2022-10-13T20:21:21.939Z,13.87
2022-10-13T20:23:50.260Z,13.17
2022-10-13T20:26:18.512Z,14.57
2022-10-13T20:28:47.211Z,9.83
2022-10-13T20:31:15.883Z,10.33
2022-10-13T20:33:43.670Z,16.87
2022-10-13T20:36:14.925Z,15.67
2022-10-13T20:38:42.522Z,8.13
2022-10-13T20:41:15.865Z,13.03
2022-10-13T20:43:43.392Z,10.60
2022-10-13T20:46:11.116Z,10.73
2022-10-13T20:49:08.784Z,13.10
2022-10-13T20:51:29.687Z,7.80
2022-10-13T20:53:57.498Z,8.30
2022-10-13T20:56:26.765Z,10.53
2022-10-13T20:58:55.053Z,14.03
2022-10-13T21:01:23.772Z,8.33
2022-10-13T21:03:55.332Z,8.47
2022-10-13T21:06:24.048Z,9.83
2022-10-13T21:08:53.737Z,13.00
2022-10-13T21:11:23.437Z,11.97
2022-10-13T21:13:52.050Z,13.97
2022-10-13T21:16:21.566Z,13.20
2022-10-13T21:18:50.834Z,10.77
2022-10-13T21:21:20.181Z,11.30
2022-10-13T21:23:50.425Z,15.07
2022-10-13T21:26:21.895Z,12.90
2022-10-13T21:28:50.364Z,13.70
2022-10-13T21:31:19.400Z,13.97
2022-10-13T21:33:47.117Z,16.40
2022-10-13T21:36:16.576Z,13.77
2022-10-13T21:38:45.204Z,11.17
2022-10-13T21:41:13.773Z,8.03
2022-10-13T21:43:42.757Z,12.67
2022-10-13T21:46:12.497Z,20.57
2022-10-13T21:48:40.216Z,11.30
2022-10-13T21:51:15.251Z,15.00
2022-10-13T21:53:43.705Z,9.77
2022-10-13T21:56:12.493Z,15.50
2022-10-13T21:58:40.385Z,13.63
2022-10-13T22:01:09.653Z,13.50
2022-10-13T22:03:37.305Z,14.30
2022-10-13T22:06:10.148Z,17.03
2022-10-13T22:08:41.552Z,11.97
2022-10-13T22:11:11.380Z,14.47
2022-10-13T22:13:39.734Z,10.10
2022-10-13T22:16:10.590Z,13.70
2022-10-13T22:18:38.135Z,10.73
2022-10-13T22:21:07.831Z,15.17
2022-10-13T22:23:35.639Z,13.23
2022-10-13T22:26:03.266Z,15.90
2022-10-13T22:28:36.822Z,13.83
2022-10-13T22:31:05.568Z,19.87
2022-10-13T22:33:35.800Z,13.77
2022-10-13T22:36:08.151Z,17.03
2022-10-13T22:38:35.830Z,11.97
2022-10-13T22:41:03.926Z,14.80
2022-10-13T22:43:31.808Z,20.13
2022-10-13T22:45:59.531Z,20.03
2022-10-13T22:48:27.098Z,17.50
2022-10-13T22:50:56.518Z,14.47
2022-10-13T22:53:24.032Z,20.67
2022-10-13T22:55:51.610Z,20.23
2022-10-13T22:58:19.146Z,17.53
2022-10-13T23:00:46.948Z,15.63
2022-10-13T23:03:15.913Z,16.97
2022-10-13T23:05:44.107Z,16.33
2022-10-13T23:08:13.336Z,15.57
2022-10-13T23:10:40.893Z,19.83
2022-10-13T23:13:08.553Z,18.10
2022-10-13T23:15:38.823Z,16.10
2022-10-13T23:18:06.418Z,20.67
2022-10-13T23:20:34.091Z,17.43
2022-10-13T23:23:01.967Z,18.30
2022-10-13T23:25:30.928Z,15.90
2022-10-13T23:27:59.151Z,16.70
2022-10-13T23:30:28.212Z,15.90
2022-10-13T23:32:56.011Z,12.80
2022-10-13T23:35:23.928Z,17.27
2022-10-13T23:37:52.590Z,13.93
2022-10-13T23:40:20.248Z,17.60
2022-10-13T23:42:49.204Z,15.23
2022-10-13T23:45:16.870Z,18.70
2022-10-13T23:47:44.369Z,19.07
2022-10-13T23:50:12.142Z,14.83
2022-10-13T23:52:39.765Z,16.73
2022-10-13T23:55:07.943Z,19.37
2022-10-13T23:57:35.650Z,19.43
